Time;durP1;ratioP1;P1;durP2;ratioP2;P2;SDS_P1;SDS_P2;PMS_P1;PMS_P2;Temp;Humidity;BMP_temperature;BMP_pressure;BME280_temperature;BME280_humidity;BME280_pressure;Samples;Min_cycle;Max_cycle;Signal;HPM_P1;HPM_P2
2023/09/13 00:00:15;;;;;;;8.13;3.55;;;18.70;99.90;;;;;;5139808;27;20138;-75
2023/09/13 00:02:41;;;;;;;8.45;3.10;;;18.70;99.90;;;;;;5138560;27;20035;-74
2023/09/13 00:05:08;;;;;;;9.38;3.40;;;18.70;99.90;;;;;;5108837;27;20601;-72
2023/09/13 00:07:35;;;;;;;11.30;3.67;;;18.70;99.90;;;;;;5123211;27;20043;-74
2023/09/13 00:10:01;;;;;;;9.27;3.80;;;18.70;99.90;;;;;;5122143;27;20402;-74
2023/09/13 00:12:26;;;;;;;5.97;3.42;;;18.70;99.90;;;;;;5113917;27;20478;-74
2023/09/13 00:14:52;;;;;;;9.68;4.40;;;18.60;99.90;;;;;;5123359;27;20043;-74
2023/09/13 00:17:20;;;;;;;8.48;5.00;;;18.60;99.90;;;;;;5114077;27;20058;-75
2023/09/13 00:19:46;;;;;;;8.40;4.13;;;18.50;99.90;;;;;;5139597;27;20146;-74
2023/09/13 00:22:12;;;;;;;5.80;3.50;;;18.50;99.90;;;;;;5138904;27;20502;-79
2023/09/13 00:24:38;;;;;;;6.68;4.40;;;18.40;99.90;;;;;;5126154;27;20047;-75
2023/09/13 00:27:04;;;;;;;8.30;3.90;;;18.40;99.90;;;;;;5122404;27;20135;-78
2023/09/13 00:29:33;;;;;;;15.77;5.15;;;18.40;99.90;;;;;;5104316;27;20096;-77
2023/09/13 00:32:00;;;;;;;7.68;4.32;;;18.40;99.90;;;;;;5133629;27;20479;-75
2023/09/13 00:34:26;;;;;;;11.80;3.70;;;18.30;99.90;;;;;;5125716;27;20049;-77
2023/09/13 00:36:52;;;;;;;8.95;3.88;;;18.30;99.90;;;;;;5105150;27;20039;-77
2023/09/13 00:39:17;;;;;;;9.18;3.90;;;18.20;99.90;;;;;;5140129;27;20051;-78
2023/09/13 00:41:43;;;;;;;6.78;3.45;;;18.20;99.90;;;;;;5103715;27;20112;-75
2023/09/13 00:44:09;;;;;;;7.13;3.60;;;18.20;99.90;;;;;;5108778;28;20759;-76
2023/09/13 00:46:35;;;;;;;7.00;2.97;;;18.70;99.90;;;;;;5133111;27;20050;-76
2023/09/13 00:49:02;;;;;;;6.25;3.47;;;18.10;99.90;;;;;;5139872;27;20057;-76
2023/09/13 00:51:28;;;;;;;5.90;3.08;;;18.10;99.90;;;;;;5102720;28;20046;-75
2023/09/13 00:53:56;;;;;;;5.85;2.90;;;18.10;99.90;;;;;;5121500;27;20039;-77
2023/09/13 00:56:22;;;;;;;7.03;3.13;;;18.00;99.90;;;;;;5120154;27;20532;-78
2023/09/13 00:58:48;;;;;;;7.03;3.40;;;18.00;99.90;;;;;;5093900;28;20073;-76
2023/09/13 01:01:15;;;;;;;8.07;2.95;;;18.00;99.90;;;;;;5134942;27;20074;-75
2023/09/13 01:03:42;;;;;;;7.68;3.67;;;17.90;99.90;;;;;;5138232;27;20043;-77
2023/09/13 01:06:09;;;;;;;8.38;3.67;;;17.90;99.90;;;;;;5137424;27;20054;-77
2023/09/13 01:08:41;;;;;;;5.85;3.28;;;17.90;99.90;;;;;;5139162;27;20085;-76
2023/09/13 01:11:08;;;;;;;8.50;3.25;;;17.80;99.90;;;;;;5136011;27;20053;-74
2023/09/13 01:13:34;;;;;;;6.22;3.22;;;17.80;99.90;;;;;;5139456;27;20126;-77
2023/09/13 01:16:27;;;;;;;8.52;3.38;;;17.80;99.90;;;;;;5120097;27;20066;-75
2023/09/13 01:19:24;;;;;;;9.27;2.97;;;17.70;99.90;;;;;;5121883;27;20122;-75
2023/09/13 01:22:11;;;;;;;5.18;2.63;;;17.70;99.90;;;;;;5137779;27;20121;-75
2023/09/13 01:24:56;;;;;;;7.55;2.85;;;17.60;99.90;;;;;;5139524;27;20038;-75
2023/09/13 01:27:25;;;;;;;7.97;2.40;;;17.60;99.90;;;;;;5139652;27;20058;-77
2023/09/13 01:29:51;;;;;;;8.15;3.22;;;17.60;99.90;;;;;;5138642;27;20043;-76
2023/09/13 01:32:17;;;;;;;8.50;2.72;;;17.60;99.90;;;;;;5139736;27;20074;-79
2023/09/13 01:34:43;;;;;;;7.22;3.00;;;17.50;99.90;;;;;;5107996;27;20925;-75
2023/09/13 01:37:09;;;;;;;4.47;2.85;;;17.60;99.90;;;;;;5123905;27;20053;-77
2023/09/13 01:39:34;;;;;;;5.93;2.33;;;17.50;99.90;;;;;;5140753;27;20043;-75
2023/09/13 01:42:06;;;;;;;4.13;2.53;;;17.50;99.90;;;;;;5132854;27;20059;-76
2023/09/13 01:44:34;;;;;;;7.35;2.88;;;17.50;99.90;;;;;;5132028;27;20053;-76
2023/09/13 01:47:02;;;;;;;4.32;2.42;;;17.50;99.90;;;;;;5130337;27;20058;-75
2023/09/13 01:49:29;;;;;;;5.88;2.35;;;17.50;99.90;;;;;;5119656;27;20042;-75
2023/09/13 01:51:55;;;;;;;7.43;2.15;;;17.50;99.90;;;;;;5136053;27;20062;-76
2023/09/13 01:54:21;;;;;;;5.78;2.97;;;17.50;99.90;;;;;;5143322;27;20058;-76
2023/09/13 01:56:47;;;;;;;7.32;3.03;;;17.50;99.90;;;;;;5141345;27;20050;-80
2023/09/13 01:59:13;;;;;;;8.00;3.13;;;17.50;99.90;;;;;;5143263;27;20186;-76
2023/09/13 02:01:38;;;;;;;9.07;2.72;;;17.50;99.90;;;;;;5141149;27;20117;-79
2023/09/13 02:04:05;;;;;;;5.75;2.60;;;17.50;99.90;;;;;;5122674;27;20455;-75
2023/09/13 02:06:31;;;;;;;6.50;2.80;;;17.40;99.90;;;;;;5121945;27;20058;-80
2023/09/13 02:08:57;;;;;;;7.43;2.90;;;17.40;99.90;;;;;;5134790;27;20047;-75
2023/09/13 02:11:24;;;;;;;4.80;3.05;;;17.40;99.90;;;;;;5135403;27;20046;-76
2023/09/13 02:13:50;;;;;;;6.32;2.67;;;17.40;99.90;;;;;;5138128;27;20050;-77
2023/09/13 02:16:22;;;;;;;4.85;2.50;;;17.30;99.90;;;;;;5137784;27;20050;-77
2023/09/13 02:18:47;;;;;;;6.85;2.92;;;17.30;99.90;;;;;;5138452;27;20125;-76
2023/09/13 02:21:13;;;;;;;5.07;2.60;;;17.30;99.90;;;;;;5139671;27;20055;-75
2023/09/13 02:23:41;;;;;;;5.38;2.70;;;17.30;99.90;;;;;;5139900;27;20639;-74
2023/09/13 02:26:17;;;;;;;5.90;2.83;;;17.30;99.90;;;;;;5140767;27;20166;-77
2023/09/13 02:28:42;;;;;;;7.55;3.15;;;17.30;99.90;;;;;;5137074;27;20046;-78
2023/09/13 02:31:08;;;;;;;5.93;2.75;;;17.30;99.90;;;;;;5141193;27;20402;-74
2023/09/13 02:33:34;;;;;;;9.60;3.97;;;17.30;99.90;;;;;;5139742;27;20042;-75
2023/09/13 02:35:59;;;;;;;6.85;2.90;;;17.30;99.90;;;;;;5141707;27;20077;-76
2023/09/13 02:38:25;;;;;;;6.50;2.90;;;17.30;99.90;;;;;;5139832;27;20043;-75
2023/09/13 02:40:51;;;;;;;9.57;3.17;;;17.40;99.90;;;;;;5139843;27;20061;-76
2023/09/13 02:43:16;;;;;;;4.60;3.00;;;17.40;99.90;;;;;;5139705;27;20065;-76
2023/09/13 02:45:42;;;;;;;9.73;3.30;;;17.30;99.90;;;;;;5141656;27;20050;-75
2023/09/13 02:48:08;;;;;;;7.10;3.72;;;17.30;99.90;;;;;;5139316;27;20051;-75
2023/09/13 02:50:34;;;;;;;4.63;2.83;;;17.40;99.90;;;;;;5117378;27;20070;-75
2023/09/13 02:52:59;;;;;;;3.17;1.90;;;17.30;99.90;;;;;;5125303;27;20133;-75
2023/09/13 02:55:25;;;;;;;10.13;3.05;;;17.30;99.90;;;;;;5142206;27;20050;-73
2023/09/13 02:57:53;;;;;;;6.80;2.83;;;17.30;99.90;;;;;;5143380;27;20050;-75
2023/09/13 03:00:18;;;;;;;4.10;2.50;;;17.30;99.90;;;;;;5142274;27;20638;-75
2023/09/13 03:02:44;;;;;;;7.80;2.85;;;17.40;99.90;;;;;;5123400;27;20054;-76
2023/09/13 03:05:10;;;;;;;6.97;2.70;;;17.30;99.90;;;;;;5142417;27;20078;-73
2023/09/13 03:07:36;;;;;;;4.18;2.20;;;17.30;99.90;;;;;;5143026;27;20082;-75
2023/09/13 03:10:02;;;;;;;7.03;3.13;;;17.30;99.90;;;;;;5141253;27;20042;-74
2023/09/13 03:12:28;;;;;;;3.95;1.90;;;17.30;99.90;;;;;;5143079;27;20050;-75
2023/09/13 03:14:56;;;;;;;5.22;2.40;;;17.40;99.90;;;;;;5140359;27;20050;-77
2023/09/13 03:17:21;;;;;;;4.85;2.65;;;17.40;99.90;;;;;;5127588;27;20483;-74
2023/09/13 03:19:47;;;;;;;6.15;2.03;;;17.40;99.90;;;;;;5123073;27;20043;-75
2023/09/13 03:22:13;;;;;;;5.50;2.70;;;17.40;99.90;;;;;;5114928;27;20051;-78
2023/09/13 03:24:38;;;;;;;6.20;2.95;;;17.40;99.90;;;;;;5122823;27;20076;-76
2023/09/13 03:27:04;;;;;;;10.82;3.20;;;17.40;99.90;;;;;;5113790;27;20051;-79
2023/09/13 03:29:30;;;;;;;4.45;2.35;;;16.50;99.90;;;;;;5120071;27;20491;-73
2023/09/13 03:31:55;;;;;;;7.10;2.50;;;17.30;99.90;;;;;;5121958;27;20539;-76
2023/09/13 03:34:21;;;;;;;5.80;2.85;;;17.30;99.90;;;;;;5137528;27;20765;-77
2023/09/13 03:36:47;;;;;;;6.63;2.97;;;17.30;99.90;;;;;;5140448;27;20049;-73
2023/09/13 03:39:13;;;;;;;3.67;2.47;;;17.30;99.90;;;;;;5120754;27;20578;-75
2023/09/13 03:41:38;;;;;;;9.23;2.58;;;17.30;99.90;;;;;;5134008;27;20673;-76
2023/09/13 03:44:04;;;;;;;5.47;2.42;;;17.30;99.90;;;;;;5122971;27;20091;-76
2023/09/13 03:46:30;;;;;;;6.35;2.50;;;17.30;99.90;;;;;;5122976;27;20066;-74
2023/09/13 03:48:56;;;;;;;7.45;2.63;;;17.30;99.90;;;;;;5141198;27;20482;-74
2023/09/13 03:51:21;;;;;;;8.00;2.80;;;17.30;99.90;;;;;;5140499;27;20126;-75
2023/09/13 03:53:47;;;;;;;4.82;2.42;;;17.30;99.90;;;;;;5139965;27;20487;-75
2023/09/13 03:56:13;;;;;;;4.22;2.85;;;17.20;99.90;;;;;;5138008;27;20047;-77
2023/09/13 03:58:39;;;;;;;4.38;2.65;;;17.20;99.90;;;;;;5137417;27;20152;-75
2023/09/13 04:01:05;;;;;;;5.22;2.42;;;17.20;99.90;;;;;;5123309;27;20054;-78
2023/09/13 04:03:32;;;;;;;6.90;2.67;;;17.20;99.90;;;;;;5133901;27;20116;-75
2023/09/13 04:05:58;;;;;;;6.07;2.30;;;17.20;99.90;;;;;;5136470;27;20098;-74
2023/09/13 04:08:24;;;;;;;7.45;2.40;;;17.20;99.90;;;;;;5137572;27;20514;-75
2023/09/13 04:10:50;;;;;;;8.30;2.78;;;17.10;99.90;;;;;;5140598;27;20039;-77
2023/09/13 04:13:16;;;;;;;2.78;2.10;;;17.10;99.90;;;;;;5141366;27;20046;-75
2023/09/13 04:15:45;;;;;;;5.93;2.45;;;17.20;99.90;;;;;;5140598;27;20057;-80
2023/09/13 04:18:12;;;;;;;5.97;2.72;;;17.10;99.90;;;;;;5134680;27;20163;-74
2023/09/13 04:20:38;;;;;;;4.20;2.15;;;17.10;99.90;;;;;;5114211;27;20927;-76
2023/09/13 04:23:04;;;;;;;7.10;2.65;;;17.10;99.90;;;;;;5134495;27;20053;-75
2023/09/13 04:25:29;;;;;;;5.03;2.50;;;17.10;99.90;;;;;;5117420;27;20042;-75
2023/09/13 04:27:55;;;;;;;4.75;2.28;;;17.00;99.90;;;;;;5115339;27;20601;-74
2023/09/13 04:30:21;;;;;;;5.97;2.50;;;17.00;99.90;;;;;;5134793;27;20451;-76
2023/09/13 04:32:49;;;;;;;8.02;3.05;;;17.00;99.90;;;;;;5133272;27;20075;-73
2023/09/13 04:35:15;;;;;;;6.85;2.97;;;17.00;99.90;;;;;;5135040;27;20054;-74
2023/09/13 04:37:42;;;;;;;7.10;3.20;;;17.50;99.90;;;;;;5139754;27;20055;-74
2023/09/13 04:40:08;;;;;;;5.97;2.58;;;17.00;99.90;;;;;;5136736;27;20038;-76
2023/09/13 04:42:41;;;;;;;10.77;2.45;;;16.90;99.90;;;;;;5115977;27;20063;-74
2023/09/13 04:45:07;;;;;;;6.90;2.83;;;16.90;99.90;;;;;;5114044;27;20388;-73
2023/09/13 04:47:34;;;;;;;6.55;2.55;;;16.80;99.90;;;;;;5116919;27;20051;-79
2023/09/13 04:50:00;;;;;;;5.82;2.47;;;16.70;99.90;;;;;;5117145;28;20051;-75
2023/09/13 04:52:26;;;;;;;3.97;2.50;;;16.60;99.90;;;;;;5113217;28;20839;-76
2023/09/13 04:54:51;;;;;;;3.72;1.98;;;16.50;99.90;;;;;;5117130;28;20041;-75
2023/09/13 04:57:17;;;;;;;4.88;2.15;;;16.50;99.90;;;;;;5101602;28;20053;-76
2023/09/13 04:59:45;;;;;;;6.25;2.40;;;16.30;99.90;;;;;;5116894;28;20060;-73
2023/09/13 05:02:11;;;;;;;6.65;2.85;;;16.30;99.90;;;;;;5116838;27;20084;-74
2023/09/13 05:04:40;;;;;;;9.15;2.92;;;16.20;99.90;;;;;;5116888;27;20872;-77
2023/09/13 05:07:07;;;;;;;8.48;2.95;;;16.10;99.90;;;;;;5113525;27;20188;-76
2023/09/13 05:09:34;;;;;;;11.00;3.42;;;16.00;99.90;;;;;;5120771;27;20055;-78
2023/09/13 05:12:00;;;;;;;4.53;2.65;;;15.90;99.90;;;;;;5120892;27;20095;-73
2023/09/13 05:14:26;;;;;;;9.77;3.08;;;15.80;99.90;;;;;;5119270;27;20454;-74
2023/09/13 05:16:51;;;;;;;7.35;2.88;;;15.70;99.90;;;;;;5118741;27;20089;-76
2023/09/13 05:19:20;;;;;;;5.13;2.33;;;15.70;99.90;;;;;;5118624;27;20043;-75
2023/09/13 05:21:46;;;;;;;4.65;2.20;;;15.60;99.90;;;;;;5121689;27;20078;-75
2023/09/13 05:24:12;;;;;;;6.55;2.47;;;15.60;99.90;;;;;;5117950;27;20896;-76
2023/09/13 05:26:38;;;;;;;5.18;2.20;;;15.60;99.90;;;;;;5120864;27;20039;-78
2023/09/13 05:29:04;;;;;;;9.45;3.03;;;15.50;99.90;;;;;;5119432;27;20051;-78
2023/09/13 05:31:31;;;;;;;8.75;3.15;;;15.50;99.90;;;;;;5119053;27;20054;-76
2023/09/13 05:33:57;;;;;;;7.82;2.50;;;15.50;99.90;;;;;;5118390;27;20066;-77
2023/09/13 05:36:22;;;;;;;5.10;2.20;;;15.60;99.90;;;;;;5121732;27;20491;-76
2023/09/13 05:38:49;;;;;;;4.85;2.42;;;15.60;99.90;;;;;;5118528;27;20043;-79
2023/09/13 05:41:15;;;;;;;4.57;2.22;;;15.60;99.90;;;;;;5126039;27;20050;-79
2023/09/13 05:43:42;;;;;;;4.15;2.28;;;15.50;99.90;;;;;;5139997;27;20039;-78
2023/09/13 05:46:08;;;;;;;5.68;2.45;;;15.40;99.90;;;;;;5140839;27;20060;-81
2023/09/13 05:48:35;;;;;;;6.28;2.30;;;15.30;99.90;;;;;;5132723;27;20062;-79
2023/09/13 05:51:01;;;;;;;7.90;2.80;;;15.20;99.90;;;;;;5098219;27;20139;-83
2023/09/13 05:53:28;;;;;;;5.15;2.38;;;15.10;99.90;;;;;;5120072;27;20083;-79
2023/09/13 05:55:53;;;;;;;6.72;2.90;;;15.10;99.90;;;;;;5133605;27;20658;-82
2023/09/13 05:58:19;;;;;;;8.35;3.17;;;15.00;99.90;;;;;;5140304;27;20047;-80
2023/09/13 06:00:49;;;;;;;9.48;3.05;;;15.10;99.90;;;;;;5117959;27;20039;-83
2023/09/13 06:03:19;;;;;;;3.92;2.38;;;15.00;99.90;;;;;;5121938;27;20078;-80
2023/09/13 06:05:49;;;;;;;6.43;2.40;;;15.00;99.90;;;;;;5118675;27;20078;-83
2023/09/13 06:08:15;;;;;;;7.15;2.53;;;14.90;99.90;;;;;;5138483;27;20082;-83
2023/09/13 06:10:40;;;;;;;8.63;2.80;;;14.90;99.90;;;;;;5129868;27;20158;-81
2023/09/13 06:13:07;;;;;;;6.63;2.45;;;15.00;99.90;;;;;;5129190;27;20082;-80
2023/09/13 06:15:33;;;;;;;4.07;2.17;;;15.00;99.90;;;;;;5136235;27;20058;-82
2023/09/13 06:17:59;;;;;;;9.48;2.63;;;14.90;99.90;;;;;;5139964;27;20043;-80
2023/09/13 06:20:24;;;;;;;4.40;2.10;;;15.00;99.90;;;;;;5126264;27;20051;-82
2023/09/13 06:22:50;;;;;;;6.30;2.70;;;15.00;99.90;;;;;;5130765;27;20047;-81
2023/09/13 06:25:17;;;;;;;9.02;3.30;;;15.00;99.90;;;;;;5122023;27;20047;-78
2023/09/13 06:27:46;;;;;;;9.68;3.65;;;15.10;99.90;;;;;;5134147;27;20035;-80
2023/09/13 06:30:15;;;;;;;5.93;3.65;;;15.10;99.90;;;;;;5134664;27;20331;-79
2023/09/13 06:32:41;;;;;;;6.53;3.30;;;15.10;99.90;;;;;;5121925;27;20050;-81
2023/09/13 06:35:13;;;;;;;7.25;3.88;;;15.00;99.90;;;;;;5116892;27;20078;-77
2023/09/13 06:37:39;;;;;;;7.15;3.33;;;15.00;99.90;;;;;;5104770;27;20043;-81
2023/09/13 06:40:06;;;;;;;8.02;3.35;;;15.00;99.90;;;;;;5136978;27;20049;-79
2023/09/13 06:42:32;;;;;;;8.00;3.72;;;14.90;99.90;;;;;;5133078;27;20074;-75
2023/09/13 06:44:59;;;;;;;8.68;3.88;;;14.80;99.90;;;;;;5132020;27;20691;-75
2023/09/13 06:47:28;;;;;;;12.93;3.67;;;14.80;99.90;;;;;;5124518;27;20047;-81
2023/09/13 06:49:54;;;;;;;6.55;3.72;;;14.90;99.90;;;;;;5131465;27;20726;-81
2023/09/13 06:52:20;;;;;;;10.70;4.22;;;14.90;99.90;;;;;;5134168;27;20051;-81
2023/09/13 06:54:46;;;;;;;8.25;3.92;;;15.00;99.90;;;;;;5138049;27;20045;-81
2023/09/13 06:57:11;;;;;;;8.93;3.45;;;15.00;99.90;;;;;;5124799;27;20043;-83
2023/09/13 06:59:37;;;;;;;16.48;4.72;;;15.00;99.90;;;;;;5142339;27;20050;-85
2023/09/13 07:02:03;;;;;;;9.95;4.10;;;15.00;99.90;;;;;;5121734;27;20050;-78
2023/09/13 07:04:30;;;;;;;10.80;3.92;;;14.90;99.90;;;;;;5140161;27;20042;-82
2023/09/13 07:06:56;;;;;;;7.93;3.78;;;15.10;99.90;;;;;;5124823;27;20055;-81
2023/09/13 07:09:21;;;;;;;7.35;3.53;;;15.10;99.90;;;;;;5104344;27;20608;-84
2023/09/13 07:11:47;;;;;;;7.68;3.78;;;15.10;99.90;;;;;;5134078;27;20130;-81
2023/09/13 07:14:13;;;;;;;9.88;4.72;;;15.20;99.90;;;;;;5139359;27;20508;-80
2023/09/13 07:16:38;;;;;;;10.38;3.88;;;15.20;99.90;;;;;;5125180;27;20475;-84
2023/09/13 07:19:04;;;;;;;12.82;3.88;;;15.20;99.90;;;;;;5128200;27;20051;-81
2023/09/13 07:21:30;;;;;;;10.80;4.32;;;15.20;99.90;;;;;;5136021;27;20806;-82
2023/09/13 07:23:55;;;;;;;7.10;3.63;;;15.20;99.90;;;;;;5104663;27;20066;-80
2023/09/13 07:26:21;;;;;;;11.30;3.88;;;15.20;99.90;;;;;;5125300;27;20046;-81
2023/09/13 07:28:47;;;;;;;12.35;3.75;;;15.20;99.90;;;;;;5136686;27;20051;-83
2023/09/13 07:31:13;;;;;;;10.38;4.00;;;15.30;99.90;;;;;;5120690;27;20053;-80
2023/09/13 07:33:39;;;;;;;14.27;3.83;;;15.40;99.90;;;;;;5122640;27;20051;-81
2023/09/13 07:36:06;;;;;;;13.00;4.50;;;15.50;99.90;;;;;;5132618;27;20055;-79
2023/09/13 07:38:32;;;;;;;10.98;3.53;;;15.60;99.90;;;;;;5084440;27;20186;-78
2023/09/13 07:40:58;;;;;;;6.35;3.40;;;16.20;99.90;;;;;;5121480;27;20834;-82
2023/09/13 07:43:24;;;;;;;5.30;3.47;;;15.70;99.90;;;;;;5115782;27;20061;-80
2023/09/13 07:45:50;;;;;;;8.07;3.55;;;15.70;99.90;;;;;;5132466;27;20873;-82
2023/09/13 07:48:16;;;;;;;7.63;3.40;;;15.60;99.90;;;;;;5118386;27;20059;-80
2023/09/13 07:50:42;;;;;;;6.25;3.05;;;15.60;99.90;;;;;;5118326;27;20126;-81
2023/09/13 07:53:12;;;;;;;11.40;3.13;;;15.50;99.90;;;;;;5114259;27;20055;-80
2023/09/13 07:55:39;;;;;;;7.85;3.72;;;15.60;99.90;;;;;;5133601;27;20039;-79
2023/09/13 07:58:08;;;;;;;8.85;3.38;;;15.60;99.90;;;;;;5140676;27;20051;-81
2023/09/13 08:00:34;;;;;;;7.93;3.17;;;15.50;99.90;;;;;;5126339;27;20095;-80
2023/09/13 08:03:00;;;;;;;8.68;3.00;;;15.50;99.90;;;;;;5120553;27;20079;-82
2023/09/13 08:05:27;;;;;;;10.90;3.00;;;15.60;99.90;;;;;;5125342;27;20043;-80
2023/09/13 08:07:53;;;;;;;7.57;3.97;;;15.70;99.90;;;;;;5146895;27;20054;-79
2023/09/13 08:10:21;;;;;;;7.18;2.85;;;15.60;99.90;;;;;;5153753;27;20071;-79
2023/09/13 08:12:48;;;;;;;8.63;2.88;;;15.70;99.90;;;;;;5144868;27;20121;-81
2023/09/13 08:15:13;;;;;;;7.50;3.97;;;15.90;99.90;;;;;;5129829;27;20031;-80
2023/09/13 08:17:39;;;;;;;8.50;2.67;;;16.00;99.90;;;;;;5125833;27;20053;-81
2023/09/13 08:20:08;;;;;;;6.28;2.90;;;16.10;99.90;;;;;;5140925;27;20061;-80
2023/09/13 08:22:35;;;;;;;10.05;3.10;;;16.30;99.90;;;;;;5123390;27;20163;-82
2023/09/13 08:25:01;;;;;;;7.28;3.47;;;16.20;99.90;;;;;;5115380;27;20092;-83
2023/09/13 08:27:26;;;;;;;8.20;3.08;;;16.30;99.90;;;;;;5138908;27;20047;-80
2023/09/13 08:29:55;;;;;;;6.75;3.33;;;16.30;99.90;;;;;;5135936;27;20581;-79
2023/09/13 08:32:22;;;;;;;9.55;2.55;;;16.40;99.90;;;;;;5137916;27;20528;-81
2023/09/13 08:34:47;;;;;;;6.55;2.85;;;16.40;99.90;;;;;;5130652;27;20031;-81
2023/09/13 08:37:13;;;;;;;3.83;2.70;;;16.50;99.90;;;;;;5132297;27;20103;-81
2023/09/13 08:39:39;;;;;;;7.40;2.83;;;16.50;99.90;;;;;;5130561;27;20047;-80
2023/09/13 08:42:05;;;;;;;10.25;3.13;;;16.60;99.90;;;;;;5135358;27;20145;-80
2023/09/13 08:44:33;;;;;;;7.57;2.92;;;16.60;99.90;;;;;;5115498;27;20838;-80
2023/09/13 08:47:01;;;;;;;6.55;2.75;;;16.70;99.90;;;;;;5132433;27;20049;-79
2023/09/13 08:49:27;;;;;;;6.47;2.78;;;16.80;99.90;;;;;;5134041;27;20139;-81
2023/09/13 08:51:53;;;;;;;9.10;2.83;;;16.80;99.90;;;;;;5119291;27;20369;-80
2023/09/13 08:54:20;;;;;;;5.57;2.60;;;16.90;99.90;;;;;;5135497;27;21107;-80
2023/09/13 08:56:47;;;;;;;6.70;2.50;;;16.80;99.90;;;;;;5121773;27;20055;-80
2023/09/13 08:59:13;;;;;;;6.80;2.40;;;16.90;99.90;;;;;;5137355;27;20069;-80
2023/09/13 09:01:42;;;;;;;8.52;2.95;;;16.90;99.90;;;;;;5137427;27;20122;-80
2023/09/13 09:04:11;;;;;;;5.70;2.88;;;16.80;99.90;;;;;;5138452;27;20042;-79
2023/09/13 09:06:37;;;;;;;7.18;3.03;;;16.80;99.90;;;;;;5135905;27;20074;-80
2023/09/13 09:09:06;;;;;;;5.70;2.72;;;16.80;99.90;;;;;;5137295;27;20051;-80
2023/09/13 09:11:35;;;;;;;7.63;3.03;;;16.80;99.90;;;;;;5138677;27;20103;-79
2023/09/13 09:14:02;;;;;;;6.22;2.78;;;16.80;99.90;;;;;;5136226;27;20035;-81
2023/09/13 09:16:30;;;;;;;6.25;3.28;;;16.80;99.90;;;;;;5138687;27;20061;-79
2023/09/13 09:18:59;;;;;;;9.93;3.08;;;16.70;99.90;;;;;;5137611;27;20812;-80
2023/09/13 09:21:25;;;;;;;6.68;3.22;;;16.80;99.90;;;;;;5126978;27;20083;-80
2023/09/13 09:23:51;;;;;;;8.45;3.08;;;16.90;99.90;;;;;;5138155;27;20047;-79
2023/09/13 09:26:17;;;;;;;11.73;3.55;;;17.10;99.90;;;;;;5139385;27;20063;-81
2023/09/13 09:28:43;;;;;;;7.18;2.72;;;17.10;99.90;;;;;;5135810;27;20810;-79
2023/09/13 09:31:10;;;;;;;5.65;2.72;;;17.20;99.90;;;;;;5138364;27;20078;-78
2023/09/13 09:33:38;;;;;;;6.00;2.85;;;17.30;99.90;;;;;;5136205;27;20146;-79
2023/09/13 09:36:04;;;;;;;4.22;2.70;;;17.10;99.90;;;;;;5127558;27;20567;-80
2023/09/13 09:38:30;;;;;;;7.43;3.38;;;16.90;99.90;;;;;;5132705;27;20043;-80
2023/09/13 09:41:06;;;;;;;6.95;3.22;;;16.90;99.90;;;;;;5138783;27;20047;-79
2023/09/13 09:43:33;;;;;;;9.98;3.10;;;16.80;99.90;;;;;;5114847;28;20063;-79
2023/09/13 09:45:59;;;;;;;6.72;3.30;;;16.70;99.90;;;;;;5115621;28;20051;-79
2023/09/13 09:48:26;;;;;;;9.60;3.38;;;16.60;99.90;;;;;;5114558;28;20496;-80
2023/09/13 09:50:54;;;;;;;5.68;2.83;;;16.40;99.90;;;;;;5108046;27;20051;-80
2023/09/13 09:53:21;;;;;;;7.82;3.72;;;16.50;99.90;;;;;;5117673;27;20076;-80
2023/09/13 09:55:47;;;;;;;11.48;3.67;;;16.50;99.90;;;;;;5107484;27;20043;-80
2023/09/13 09:58:13;;;;;;;12.93;3.58;;;16.60;99.90;;;;;;5115085;27;20054;-80
2023/09/13 10:00:49;;;;;;;10.07;3.30;;;16.70;99.90;;;;;;5111501;27;20053;-80
2023/09/13 10:03:18;;;;;;;7.38;3.80;;;16.60;99.90;;;;;;5105763;27;20590;-81
2023/09/13 10:06:23;;;;;;;7.15;3.38;;;16.50;99.90;;;;;;5115683;27;20138;-80
2023/09/13 10:08:49;;;;;;;8.48;3.67;;;16.50;99.90;;;;;;5038487;28;20048;-79
2023/09/13 10:11:22;;;;;;;7.43;2.90;;;16.40;99.90;;;;;;5024319;28;20110;-79
2023/09/13 10:13:48;;;;;;;3.55;2.72;;;16.50;99.90;;;;;;5079458;27;20663;-78
2023/09/13 10:16:16;;;;;;;7.53;3.25;;;16.60;99.90;;;;;;5119377;27;20062;-79
2023/09/13 10:18:50;;;;;;;7.85;2.90;;;16.60;99.90;;;;;;5121404;27;20047;-79
2023/09/13 10:21:30;;;;;;;8.80;3.63;;;16.70;99.90;;;;;;5117844;27;20047;-80
2023/09/13 10:24:07;;;;;;;9.73;2.92;;;16.60;99.90;;;;;;5118133;27;20074;-79
2023/09/13 10:26:34;;;;;;;3.95;2.88;;;16.70;99.90;;;;;;5116810;27;20078;-79
2023/09/13 10:29:12;;;;;;;4.75;3.55;;;16.90;99.90;;;;;;5119208;27;20113;-79
2023/09/13 10:31:46;;;;;;;6.25;2.80;;;16.80;99.90;;;;;;5119047;27;20054;-79
2023/09/13 10:34:18;;;;;;;7.78;3.10;;;17.10;99.90;;;;;;5119653;27;20050;-79
2023/09/13 10:36:48;;;;;;;5.85;2.88;;;17.20;99.90;;;;;;5119735;27;20122;-80
2023/09/13 10:39:29;;;;;;;6.13;3.22;;;17.40;99.90;;;;;;5121135;27;20051;-79
2023/09/13 10:42:08;;;;;;;4.55;2.90;;;17.60;99.90;;;;;;5119292;27;20088;-80
2023/09/13 10:44:35;;;;;;;5.07;2.50;;;17.90;99.90;;;;;;5127477;27;20039;-79
2023/09/13 10:47:03;;;;;;;6.07;2.97;;;18.30;99.90;;;;;;5134913;27;20209;-80
2023/09/13 10:49:29;;;;;;;6.10;2.75;;;18.50;99.90;;;;;;5131493;27;20051;-82
2023/09/13 10:51:58;;;;;;;5.55;2.63;;;18.60;99.90;;;;;;5134418;27;20054;-81
2023/09/13 10:54:25;;;;;;;6.13;2.90;;;18.70;99.90;;;;;;5111772;27;20432;-81
2023/09/13 10:56:52;;;;;;;4.47;3.08;;;18.70;99.90;;;;;;5142641;27;20111;-80
2023/09/13 10:59:18;;;;;;;6.45;2.90;;;18.70;99.90;;;;;;5122278;27;20046;-79
2023/09/13 11:01:47;;;;;;;7.40;3.25;;;18.50;99.90;;;;;;5142361;27;20391;-81
2023/09/13 11:04:18;;;;;;;4.05;2.75;;;18.40;99.90;;;;;;5137884;27;20092;-81
2023/09/13 11:06:45;;;;;;;5.20;2.88;;;18.50;99.90;;;;;;5142136;27;20111;-80
2023/09/13 11:09:16;;;;;;;4.82;2.28;;;18.50;99.90;;;;;;5141887;27;20063;-79
2023/09/13 11:11:52;;;;;;;4.75;2.50;;;18.70;99.90;;;;;;5136292;27;20078;-79
2023/09/13 11:14:23;;;;;;;4.28;2.80;;;18.90;99.90;;;;;;5139205;27;20082;-80
2023/09/13 11:16:49;;;;;;;4.90;2.80;;;18.90;99.90;;;;;;5133617;27;20494;-82
2023/09/13 11:19:18;;;;;;;5.03;2.30;;;18.90;99.90;;;;;;5142946;27;20161;-80
2023/09/13 11:21:52;;;;;;;3.25;2.28;;;18.90;99.90;;;;;;5133466;27;20062;-79
2023/09/13 11:24:38;;;;;;;5.68;2.58;;;18.70;99.90;;;;;;5140457;27;20038;-79
2023/09/13 11:27:17;;;;;;;4.72;2.67;;;19.00;99.90;;;;;;5136475;27;20074;-80
2023/09/13 11:29:50;;;;;;;5.55;2.55;;;19.00;99.90;;;;;;5125757;27;20163;-79
2023/09/13 11:32:17;;;;;;;;;;;19.10;99.90;;;;;;5128539;27;20077;-79
2023/09/13 11:34:43;;;;;;;6.38;2.17;;;19.10;99.90;;;;;;5106779;27;19962;-79
2023/09/13 11:37:11;;;;;;;5.80;3.08;;;19.10;99.90;;;;;;5119875;27;20039;-79
2023/09/13 11:39:38;;;;;;;3.55;1.80;;;19.20;99.90;;;;;;5134481;27;20658;-79
2023/09/13 11:42:09;;;;;;;3.33;2.13;;;19.30;99.90;;;;;;5130159;27;20058;-78
2023/09/13 11:44:37;;;;;;;6.47;2.03;;;19.40;99.90;;;;;;5142667;27;20051;-79
2023/09/13 11:47:03;;;;;;;4.43;2.35;;;19.20;99.90;;;;;;5133554;27;20051;-80
2023/09/13 11:49:29;;;;;;;3.85;1.77;;;19.20;99.90;;;;;;5134442;27;20054;-79
2023/09/13 11:52:00;;;;;;;6.70;2.10;;;19.20;99.90;;;;;;5138608;27;20159;-80
2023/09/13 11:54:26;;;;;;;4.18;1.67;;;19.10;99.90;;;;;;5141659;27;20042;-78
2023/09/13 11:56:53;;;;;;;5.07;2.13;;;19.30;99.90;;;;;;5132240;27;20046;-78
2023/09/13 11:59:32;;;;;;;4.80;2.13;;;19.40;99.90;;;;;;5135905;27;20046;-80
2023/09/13 12:01:58;;;;;;;2.53;1.75;;;19.20;99.90;;;;;;5131050;27;20483;-79
2023/09/13 12:04:25;;;;;;;5.00;1.80;;;19.20;99.90;;;;;;5110733;27;20047;-81
2023/09/13 12:06:54;;;;;;;3.33;1.73;;;19.00;99.90;;;;;;5116675;27;20043;-79
2023/09/13 12:09:21;;;;;;;3.47;2.15;;;18.90;99.90;;;;;;5135902;27;20057;-80
2023/09/13 12:11:49;;;;;;;4.85;2.00;;;18.80;99.90;;;;;;5129814;27;20131;-78
2023/09/13 12:14:16;;;;;;;5.35;1.80;;;18.90;99.90;;;;;;5140508;27;20039;-80
2023/09/13 12:16:42;;;;;;;4.85;1.77;;;19.00;99.90;;;;;;5138491;27;20058;-80
2023/09/13 12:19:12;;;;;;;7.05;2.17;;;19.10;99.90;;;;;;5102131;27;20780;-78
2023/09/13 12:21:45;;;;;;;6.07;2.22;;;19.00;99.90;;;;;;5126941;27;20042;-79
2023/09/13 12:24:23;;;;;;;2.95;1.90;;;18.90;99.90;;;;;;5134389;27;20066;-80
2023/09/13 12:26:52;;;;;;;5.05;2.35;;;18.80;99.90;;;;;;5112697;27;20058;-78
2023/09/13 12:29:18;;;;;;;7.18;2.15;;;18.60;99.90;;;;;;5133307;27;20082;-77
2023/09/13 12:31:44;;;;;;;4.25;2.10;;;18.70;99.90;;;;;;5136022;27;20130;-79
2023/09/13 12:34:10;;;;;;;4.05;1.92;;;18.80;99.90;;;;;;5141538;27;20107;-77
2023/09/13 12:36:36;;;;;;;7.30;2.40;;;19.00;99.90;;;;;;5137269;27;20118;-77
2023/09/13 12:39:11;;;;;;;6.13;2.38;;;18.80;99.90;;;;;;5135935;27;20069;-76
2023/09/13 12:41:37;;;;;;;5.45;2.55;;;18.40;99.90;;;;;;5129221;27;20039;-79
2023/09/13 12:44:04;;;;;;;6.30;2.28;;;18.20;99.90;;;;;;5125237;27;20074;-80
2023/09/13 12:46:29;;;;;;;6.07;2.22;;;18.00;99.90;;;;;;5138864;27;20126;-80